KALI/ALI METAR and TAF weather

Enter ICAO airport designator
Station Type Date Time Source
KALI METAR 2019/06/17 07:09 UTC NOAA

KALI 170709Z AUTO 14006KT 9SM SCT018 BKN023 BKN030 27/25 A2982 RMK AO2 T02670250 $


Station Type Date Time Source
KALI Decoded METAR 2019/06/17 07:09 UTC NOAA

ALICE INTERNATIONAL AIRPORT, TX, United States (KALI) 27-44N 098-01W 53M
Jun 17, 2019 - 03:09 AM EDT / 2019.06.17 0709 UTC
Wind: from the SE (140 degrees) at 7 MPH (6 KT):0
Visibility: 9 mile(s):0
Sky conditions: mostly cloudy
Temperature: 80.1 F (26.7 C)
Dew Point: 77.0 F (25.0 C)
Relative Humidity: 90%
Pressure (altimeter): 29.82 in. Hg (1009 hPa)
ob: KALI 170709Z AUTO 14006KT 9SM SCT018 BKN023 BKN030 27/25 A2982 RMK AO2 T02670250
cycle: 7

Station Type Date Time Source
KALI TAF 2019/06/17 06:22 UTC NOAA

TAF KALI 170520Z 1706/1806 16006KT P6SM BKN012
FM170900 14006KT P6SM SCT015
TEMPO 1709/1712 VRB25G35KT 3SM TSRA OVC015CB
FM171600 16012G18KT P6SM VCTS SCT035CB
FM180100 13008KT P6SM SCT030

Example: see airport list